Time;durP1;ratioP1;P1;durP2;ratioP2;P2;SDS_P1;SDS_P2;PMS_P1;PMS_P2;Temp;Humidity;BMP_temperature;BMP_pressure;BME280_temperature;BME280_humidity;BME280_pressure;Samples;Min_cycle;Max_cycle;Signal;HPM_P1;HPM_P2
2023/12/09 00:01:12;;;;;;;;;27.75;21.00;;;;;7.90;93.37;100998.53;5097386;27;45204;-54
2023/12/09 00:03:37;;;;;;;;;37.50;27.50;;;;;7.90;93.27;101002.97;5097566;27;45272;-57
2023/12/09 00:06:03;;;;;;;;;23.75;22.00;;;;;7.93;92.37;101002.75;5097679;27;45327;-52
2023/12/09 00:08:29;;;;;;;;;30.25;21.00;;;;;7.90;92.21;100995.88;5097808;27;45445;-55
2023/12/09 00:10:54;;;;;;;;;22.25;17.75;;;;;7.88;92.70;100983.69;5096949;27;46120;-56
2023/12/09 00:13:19;;;;;;;;;20.25;15.25;;;;;7.87;91.76;100976.72;5097148;27;45346;-56
2023/12/09 00:15:45;;;;;;;;;25.50;18.00;;;;;7.84;92.98;100985.78;5097235;27;45338;-57
2023/12/09 00:18:10;;;;;;;;;21.50;20.50;;;;;7.83;92.57;100977.94;5097378;27;45546;-55
2023/12/09 00:20:36;;;;;;;;;20.75;18.25;;;;;7.75;92.56;100970.59;5095509;27;45909;-55
2023/12/09 00:23:01;;;;;;;;;16.25;15.25;;;;;7.77;93.97;100981.94;5098713;27;45367;-57
2023/12/09 00:25:26;;;;;;;;;18.50;17.25;;;;;7.75;93.69;100973.25;5100538;27;45367;-56
2023/12/09 00:27:52;;;;;;;;;17.25;11.50;;;;;7.73;93.12;100977.84;5100610;27;45299;-56
2023/12/09 00:30:17;;;;;;;;;14.75;12.25;;;;;7.72;92.63;100973.53;5100421;27;45624;-56
2023/12/09 00:32:42;;;;;;;;;16.25;13.50;;;;;7.72;93.28;100971.72;5100593;27;45468;-57
2023/12/09 00:35:08;;;;;;;;;24.25;16.25;;;;;7.63;93.60;100961.84;5100854;27;45249;-58
2023/12/09 00:37:33;;;;;;;;;11.25;11.25;;;;;7.69;94.25;100985.19;5100697;27;45333;-52
2023/12/09 00:39:58;;;;;;;;;12.50;9.00;;;;;7.66;94.11;100989.88;5100761;27;45310;-57
2023/12/09 00:42:24;;;;;;;;;16.75;13.50;;;;;7.64;94.82;101000.59;5100469;27;45357;-54
2023/12/09 00:44:49;;;;;;;;;21.50;15.00;;;;;7.68;94.41;100990.63;5099996;27;45513;-52
2023/12/09 00:47:15;;;;;;;;;17.50;14.00;;;;;7.64;94.46;100991.81;5100736;27;45408;-55
2023/12/09 00:49:40;;;;;;;;;18.75;17.00;;;;;7.67;93.93;100992.44;5100135;27;46082;-54
2023/12/09 00:52:05;;;;;;;;;21.50;13.00;;;;;7.65;94.18;100991.69;5099928;27;48297;-45
2023/12/09 00:54:31;;;;;;;;;21.25;11.75;;;;;7.65;94.38;100990.84;5100320;27;45402;-46
2023/12/09 00:56:56;;;;;;;;;23.25;14.50;;;;;7.62;95.45;100991.91;5100280;27;45283;-48
2023/12/09 00:59:21;;;;;;;;;17.25;12.75;;;;;7.62;94.78;100981.34;5100033;27;47135;-46
2023/12/09 01:01:47;;;;;;;;;14.75;11.00;;;;;7.57;94.12;100977.38;5099951;27;45380;-46
2023/12/09 01:04:13;;;;;;;;;19.00;14.00;;;;;7.61;94.76;100987.59;5100633;27;45460;-45
2023/12/09 01:06:38;;;;;;;;;13.50;12.00;;;;;7.59;94.45;100976.31;5082069;27;45484;-47
2023/12/09 01:09:03;;;;;;;;;11.50;9.25;;;;;7.60;94.73;100977.16;5099862;27;45402;-48
2023/12/09 01:11:29;;;;;;;;;15.50;10.00;;;;;7.61;94.91;100968.22;5100114;27;45275;-46
2023/12/09 01:13:54;;;;;;;;;17.75;16.25;;;;;7.60;94.24;100969.19;5100151;27;45347;-44
2023/12/09 01:16:19;;;;;;;;;16.25;13.00;;;;;7.63;94.19;100975.09;5099877;27;45527;-46
2023/12/09 01:18:45;;;;;;;;;9.50;4.00;;;;;7.63;94.15;100985.69;5099712;27;46002;-47
2023/12/09 01:21:10;;;;;;;;;13.75;11.00;;;;;7.67;95.16;100988.94;5099543;27;45453;-46
2023/12/09 01:23:35;;;;;;;;;17.50;9.25;;;;;7.69;93.96;100987.84;5100124;27;45323;-48
2023/12/09 01:26:01;;;;;;;;;13.25;8.75;;;;;7.68;93.57;100975.56;5099964;27;45341;-46
2023/12/09 01:28:26;;;;;;;;;17.75;12.75;;;;;7.72;93.15;100981.47;5099813;27;46306;-46
2023/12/09 01:30:51;;;;;;;;;17.50;10.50;;;;;7.75;93.92;100979.41;5099751;27;45362;-46
2023/12/09 01:33:17;;;;;;;;;16.75;9.50;;;;;7.77;93.53;100973.16;5099274;27;48572;-46
2023/12/09 01:35:42;;;;;;;;;12.00;5.75;;;;;7.86;92.96;100978.53;5099978;27;45213;-47
2023/12/09 01:38:08;;;;;;;;;23.50;13.50;;;;;7.85;92.74;100973.38;5099315;27;45992;-44
2023/12/09 01:40:33;;;;;;;;;16.00;13.50;;;;;7.89;92.65;100982.75;5099525;27;45485;-47
2023/12/09 01:42:58;;;;;;;;;18.00;10.50;;;;;7.93;93.02;100989.50;5099433;27;45417;-45
2023/12/09 01:45:24;;;;;;;;;19.25;11.50;;;;;7.93;91.68;100974.44;5099637;27;45430;-46
2023/12/09 01:47:49;;;;;;;;;17.25;14.25;;;;;7.96;91.78;100971.56;5099139;27;47612;-47
2023/12/09 01:50:15;;;;;;;;;12.75;10.00;;;;;7.93;91.87;100965.66;5081014;27;45520;-45
2023/12/09 01:52:42;;;;;;;;;0.50;0.00;;;;;7.94;92.18;100964.69;5098403;27;45472;-47
2023/12/09 01:55:12;;;;;;;;;20.25;16.00;;;;;7.95;92.04;100964.56;5099382;27;45462;-45
2023/12/09 01:57:37;;;;;;;;;20.00;12.00;;;;;7.93;92.34;100958.56;5099066;27;46101;-48
2023/12/09 02:00:03;;;;;;;;;16.25;13.25;;;;;7.97;91.38;100957.34;5098890;27;45529;-45
2023/12/09 02:02:30;;;;;;;;;21.25;16.75;;;;;7.92;91.82;100951.56;5099039;27;45770;-48
2023/12/09 02:04:56;;;;;;;;;25.00;15.25;;;;;7.91;91.74;100949.88;5099138;27;45337;-47
2023/12/09 02:07:22;;;;;;;;;17.25;13.00;;;;;7.92;92.19;100940.97;5098669;27;45302;-47
2023/12/09 02:09:47;;;;;;;;;13.75;10.75;;;;;7.86;92.33;100938.81;5098760;27;45251;-47
2023/12/09 02:12:21;;;;;;;;;18.75;13.25;;;;;7.90;91.91;100942.06;5099202;27;45460;-46
2023/12/09 02:15:38;;;;;;;;;22.50;15.25;;;;;7.89;91.67;100927.13;5099324;27;45790;-46
2023/12/09 02:18:05;;;;;;;;;19.50;13.75;;;;;7.88;92.09;100914.84;4995725;28;46136;-45
2023/12/09 02:20:31;;;;;;;;;18.00;13.00;;;;;7.72;92.76;100897.56;4996087;28;45416;-45
2023/12/09 02:23:06;;;;;;;;;21.00;16.25;;;;;7.89;92.15;100908.59;4996046;28;45402;-48
2023/12/09 02:25:31;;;;;;;;;15.75;13.25;;;;;7.89;92.45;100905.94;4996210;28;45530;-48
2023/12/09 02:28:00;;;;;;;;;21.25;15.75;;;;;7.89;92.77;100898.00;4995649;28;45393;-46
2023/12/09 02:30:36;;;;;;;;;20.50;14.75;;;;;7.87;92.20;100884.88;4995607;28;45425;-47
2023/12/09 02:33:04;;;;;;;;;19.75;14.50;;;;;7.91;92.79;100873.06;4995718;28;45499;-47
2023/12/09 02:35:35;;;;;;;;;21.50;14.75;;;;;7.88;92.82;100872.47;4996089;28;45604;-47
2023/12/09 02:38:02;;;;;;;;;17.25;13.75;;;;;7.89;92.88;100868.88;4995493;28;45356;-47
2023/12/09 02:40:29;;;;;;;;;17.50;14.25;;;;;7.84;93.38;100857.81;4995348;28;45307;-45
2023/12/09 02:42:55;;;;;;;;;20.50;16.50;;;;;7.89;93.07;100866.22;4995690;28;45507;-49
2023/12/09 02:45:20;;;;;;;;;17.75;12.50;;;;;7.90;94.07;100870.53;4995224;28;45296;-49
2023/12/09 02:47:47;;;;;;;;;26.50;16.50;;;;;7.91;93.36;100865.09;5010774;27;46059;-47
2023/12/09 02:50:13;;;;;;;;;21.50;17.25;;;;;7.93;94.03;100860.53;5080027;27;45342;-47
2023/12/09 02:52:39;;;;;;;;;18.50;16.25;;;;;7.97;93.13;100867.25;5098371;27;45274;-52
2023/12/09 02:55:05;;;;;;;;;19.50;15.25;;;;;7.95;93.32;100848.00;5098508;27;45257;-50
2023/12/09 02:57:31;;;;;;;;;18.25;14.00;;;;;7.97;93.97;100855.84;5098017;27;46215;-53
2023/12/09 02:59:56;;;;;;;;;19.75;14.00;;;;;7.98;94.32;100846.91;5098142;27;45410;-54
2023/12/09 03:02:21;;;;;;;;;21.50;16.00;;;;;8.01;94.04;100844.00;5097287;27;45495;-43
2023/12/09 03:04:46;;;;;;;;;23.00;14.75;;;;;8.00;94.02;100837.84;5098291;27;45503;-49
2023/12/09 03:07:12;;;;;;;;;21.50;13.75;;;;;8.05;93.58;100837.50;5097922;27;47165;-45
2023/12/09 03:09:37;;;;;;;;;8.75;8.75;;;;;7.69;93.94;100775.16;5098090;27;45319;-47
2023/12/09 03:12:03;;;;;;;;;16.50;13.00;;;;;8.06;94.37;100822.44;5098281;27;45353;-50
2023/12/09 03:14:28;;;;;;;;;14.00;14.00;;;;;8.10;94.75;100819.41;5097972;27;45242;-47
2023/12/09 03:16:54;;;;;;;;;18.25;14.50;;;;;8.09;94.46;100809.78;5097689;27;45986;-47
2023/12/09 03:19:19;;;;;;;;;21.00;15.00;;;;;8.12;94.45;100811.31;5097814;27;46178;-49
2023/12/09 03:21:45;;;;;;;;;29.00;15.00;;;;;8.11;94.59;100807.81;5097745;27;45324;-47
2023/12/09 03:24:10;;;;;;;;;19.50;9.00;;;;;8.10;94.44;100784.94;5098040;27;45304;-51
2023/12/09 03:26:36;;;;;;;;;20.00;14.00;;;;;8.13;94.34;100783.84;5097182;27;45342;-46
2023/12/09 03:29:01;;;;;;;;;12.50;10.00;;;;;8.14;93.63;100778.44;5097334;27;45472;-51
2023/12/09 03:31:26;;;;;;;;;16.00;14.00;;;;;8.13;94.22;100770.59;5097736;27;45423;-54
2023/12/09 03:33:51;;;;;;;;;13.75;12.75;;;;;8.10;95.32;100763.75;5097944;27;45445;-50
2023/12/09 03:36:17;;;;;;;;;17.50;13.50;;;;;8.06;94.60;100767.63;5097405;27;47282;-51
2023/12/09 03:38:42;;;;;;;;;14.50;10.50;;;;;8.12;93.75;100756.50;5097274;27;48588;-53
2023/12/09 03:41:08;;;;;;;;;23.25;14.00;;;;;8.13;95.10;100763.50;5097488;27;45328;-47
2023/12/09 03:43:34;;;;;;;;;12.25;8.25;;;;;8.14;93.66;100764.34;5097776;27;45473;-50
2023/12/09 03:45:59;;;;;;;;;9.75;7.25;;;;;8.09;94.46;100748.84;5097339;27;46211;-48
2023/12/09 03:48:28;;;;;;;;;17.75;12.75;;;;;8.13;94.22;100739.66;5097417;27;45386;-50
2023/12/09 03:50:53;;;;;;;;;16.25;10.00;;;;;8.15;95.38;100740.34;5097478;27;45478;-54
2023/12/09 03:53:19;;;;;;;;;18.50;10.75;;;;;8.14;95.42;100729.91;5097627;27;45358;-54
2023/12/09 03:55:44;;;;;;;;;13.75;9.75;;;;;8.11;94.84;100715.09;5097265;27;45425;-56
2023/12/09 03:58:10;;;;;;;;;13.25;11.25;;;;;8.18;94.60;100731.31;5096123;27;45400;-55
2023/12/09 04:00:36;;;;;;;;;16.00;13.75;;;;;8.21;94.36;100737.16;5097508;27;45437;-54
2023/12/09 04:03:02;;;;;;;;;15.25;14.75;;;;;8.18;95.14;100726.00;5097091;27;45532;-55
2023/12/09 04:05:28;;;;;;;;;12.75;10.00;;;;;8.23;94.72;100727.28;5097083;27;46473;-48
2023/12/09 04:07:53;;;;;;;;;18.25;14.50;;;;;8.25;94.47;100720.03;5096964;27;45354;-48
2023/12/09 04:10:18;;;;;;;;;16.75;12.00;;;;;8.27;94.67;100730.53;5097006;27;45366;-48
2023/12/09 04:12:44;;;;;;;;;17.00;13.50;;;;;8.23;94.80;100700.78;5097362;27;45322;-48
2023/12/09 04:15:11;;;;;;;;;19.50;12.00;;;;;8.29;94.69;100703.88;5096637;27;50286;-49
2023/12/09 04:17:37;;;;;;;;;13.00;9.50;;;;;8.17;94.95;100685.41;5096885;27;45557;-47
2023/12/09 04:20:05;;;;;;;;;13.50;10.50;;;;;8.30;95.86;100684.34;5097133;27;45469;-47
2023/12/09 04:22:30;;;;;;;;;14.67;9.67;;;;;8.30;95.49;100692.28;5097264;27;45260;-48
2023/12/09 04:24:56;;;;;;;;;16.00;11.33;;;;;8.31;95.08;100686.03;5095585;27;46069;-46
2023/12/09 04:27:21;;;;;;;;;13.67;10.00;;;;;8.30;95.29;100689.63;5095755;27;45424;-45
2023/12/09 04:29:47;;;;;;;;;15.00;9.67;;;;;8.31;95.47;100680.75;5096763;27;45394;-44
2023/12/09 04:32:12;;;;;;;;;11.67;9.33;;;;;8.31;96.05;100678.94;5097100;27;45492;-47
2023/12/09 04:34:38;;;;;;;;;18.33;12.67;;;;;8.33;95.02;100690.22;5096827;27;46073;-46
2023/12/09 04:37:03;;;;;;;;;13.67;10.00;;;;;8.36;96.34;100681.16;5097003;27;45436;-47
2023/12/09 04:39:29;;;;;;;;;13.75;9.75;;;;;8.35;95.92;100677.69;5097047;27;45408;-51
2023/12/09 04:41:54;;;;;;;;;15.67;10.33;;;;;8.36;95.54;100687.31;5097040;27;45507;-52
2023/12/09 04:44:22;;;;;;;;;12.00;10.25;;;;;8.36;95.13;100674.06;5096559;27;46230;-52
2023/12/09 04:46:48;;;;;;;;;12.00;10.00;;;;;8.26;94.66;100654.63;5096463;27;45456;-52
2023/12/09 04:49:13;;;;;;;;;10.67;9.00;;;;;8.38;94.92;100661.53;5096804;27;45668;-45
2023/12/09 04:51:39;;;;;;;;;13.00;10.67;;;;;8.37;94.27;100654.56;5096811;27;45368;-49
2023/12/09 04:54:04;;;;;;;;;11.33;10.33;;;;;8.39;94.94;100642.03;5096648;27;45354;-55
2023/12/09 04:56:29;;;;;;;;;13.50;9.50;;;;;8.39;94.82;100649.13;5096645;27;45338;-50
2023/12/09 04:58:55;;;;;;;;;14.25;10.00;;;;;8.40;94.76;100643.69;5096620;27;45307;-46
2023/12/09 05:01:21;;;;;;;;;17.75;10.00;;;;;8.40;95.48;100641.03;5096792;27;45330;-50
2023/12/09 05:03:47;;;;;;;;;17.33;11.67;;;;;8.42;95.75;100647.03;5096528;27;47019;-46
2023/12/09 05:06:12;;;;;;;;;10.67;5.67;;;;;8.43;95.99;100637.28;5096350;27;45511;-52
2023/12/09 05:08:39;;;;;;;;;12.33;8.67;;;;;8.46;94.54;100639.66;5079502;27;45335;-47
2023/12/09 05:11:04;;;;;;;;;6.33;3.33;;;;;8.46;96.22;100637.00;5099135;27;45440;-46
2023/12/09 05:13:29;;;;;;;;;13.33;9.00;;;;;8.47;95.46;100633.41;5099049;27;45714;-52
2023/12/09 05:15:55;;;;;;;;;16.67;12.33;;;;;8.47;94.50;100614.84;5099864;27;45413;-51
2023/12/09 05:18:20;;;;;;;;;10.33;7.33;;;;;8.49;95.19;100620.81;5099500;27;45334;-47
2023/12/09 05:20:45;;;;;;;;;17.00;14.00;;;;;8.48;96.08;100630.59;5100134;27;45417;-45
2023/12/09 05:23:11;;;;;;;;;18.50;10.25;;;;;8.48;95.77;100613.84;5099616;27;47242;-45
2023/12/09 05:25:36;;;;;;;;;19.50;14.00;;;;;8.48;96.28;100605.91;5099685;27;45417;-43
2023/12/09 05:28:02;;;;;;;;;22.00;16.75;;;;;8.48;96.47;100603.25;5099477;27;45383;-50
2023/12/09 05:30:28;;;;;;;;;19.25;16.25;;;;;8.48;96.40;100603.25;5099953;27;45461;-46
2023/12/09 05:32:53;;;;;;;;;22.25;15.50;;;;;8.49;97.16;100587.19;5099201;27;45359;-46
2023/12/09 05:35:18;;;;;;;;;23.75;17.25;;;;;8.52;96.75;100578.16;5099492;27;45284;-46
2023/12/09 05:37:44;;;;;;;;;14.75;12.25;;;;;8.53;97.04;100579.81;5080831;27;45315;-51
2023/12/09 05:40:10;;;;;;;;;21.25;15.00;;;;;8.53;97.16;100569.22;5099557;27;45525;-50
2023/12/09 05:42:35;;;;;;;;;14.33;10.67;;;;;8.54;96.28;100559.44;5099256;27;45341;-46
2023/12/09 05:45:00;;;;;;;;;18.00;12.00;;;;;8.57;96.94;100570.63;5099326;27;45343;-47
2023/12/09 05:47:26;;;;;;;;;14.67;10.00;;;;;8.56;97.30;100554.84;5099342;27;45327;-45
2023/12/09 05:49:51;;;;;;;;;24.00;14.00;;;;;8.58;97.08;100553.72;5099551;27;45453;-47
2023/12/09 05:52:16;;;;;;;;;21.33;15.00;;;;;8.54;97.98;100540.88;5099114;27;46073;-46
2023/12/09 05:54:42;;;;;;;;;17.33;10.00;;;;;8.52;98.19;100530.44;5081004;27;45299;-43
2023/12/09 05:57:07;;;;;;;;;7.67;7.67;;;;;8.58;97.92;100534.31;5099371;27;45335;-48
2023/12/09 05:59:33;;;;;;;;;9.00;8.67;;;;;8.58;98.09;100521.91;5099251;27;45474;-43
2023/12/09 06:01:58;;;;;;;;;9.67;8.33;;;;;8.61;98.75;100524.28;5098710;27;46029;-45
2023/12/09 06:04:24;;;;;;;;;9.33;9.00;;;;;8.62;98.64;100514.50;5098874;27;45341;-46
2023/12/09 06:06:49;;;;;;;;;9.67;9.67;;;;;8.54;97.68;100495.81;5080594;27;45545;-48
2023/12/09 06:09:14;;;;;;;;;10.00;6.00;;;;;8.62;98.65;100504.75;5081030;27;45431;-49
2023/12/09 06:11:40;;;;;;;;;7.67;6.33;;;;;8.60;98.76;100500.56;5098858;27;47073;-45
2023/12/09 06:14:07;;;;;;;;;10.00;7.00;;;;;8.64;98.53;100500.16;5098886;27;45421;-51
2023/12/09 06:16:32;;;;;;;;;14.00;6.00;;;;;8.64;98.82;100500.16;5098964;27;45346;-45
2023/12/09 06:18:58;;;;;;;;;5.00;5.00;;;;;8.63;98.93;100487.00;5098913;27;45466;-49
2023/12/09 06:21:24;;;;;;;;;6.00;6.00;;;;;8.65;99.35;100482.41;5097806;27;46076;-47
2023/12/09 06:23:50;;;;;;;;;7.00;5.67;;;;;8.68;99.13;100474.16;5098748;27;45310;-48
2023/12/09 06:26:16;;;;;;;;;7.33;6.00;;;;;8.68;99.28;100464.41;5097536;27;45371;-49
2023/12/09 06:28:41;;;;;;;;;11.67;6.00;;;;;8.69;99.16;100452.81;5098561;27;45483;-47
2023/12/09 06:31:07;;;;;;;;;10.67;6.00;;;;;8.66;99.76;100461.06;5098733;27;46347;-50
2023/12/09 06:33:33;;;;;;;;;9.00;7.00;;;;;8.59;100.00;100435.25;5098408;27;45153;-47
2023/12/09 06:35:59;;;;;;;;;9.00;8.33;;;;;8.61;100.00;100435.94;5098808;27;45486;-49
2023/12/09 06:38:25;;;;;;;;;6.33;3.67;;;;;8.68;100.00;100424.63;5098908;27;45252;-48
2023/12/09 06:40:51;;;;;;;;;17.00;9.33;;;;;8.66;100.00;100426.59;5098339;27;45358;-47
2023/12/09 06:43:16;;;;;;;;;8.67;4.33;;;;;8.66;100.00;100431.88;5097000;27;45398;-46
2023/12/09 06:45:41;;;;;;;;;8.00;6.00;;;;;8.64;100.00;100417.94;5098515;27;45299;-48
2023/12/09 06:48:06;;;;;;;;;9.33;5.00;;;;;8.60;100.00;100410.41;5098395;27;45341;-53
2023/12/09 06:50:32;;;;;;;;;11.00;6.00;;;;;8.65;100.00;100394.91;5079809;27;46535;-45
2023/12/09 06:53:00;;;;;;;;;6.00;5.67;;;;;8.64;100.00;100388.78;5098086;27;48497;-49
2023/12/09 06:55:25;;;;;;;;;7.00;6.00;;;;;8.63;100.00;100388.91;5098403;27;45426;-49
2023/12/09 06:57:51;;;;;;;;;6.67;5.67;;;;;8.66;100.00;100385.97;5098545;27;45367;-47
2023/12/09 07:00:16;;;;;;;;;10.00;7.67;;;;;8.65;100.00;100395.75;5098024;27;46065;-50
2023/12/09 07:02:42;;;;;;;;;7.33;6.33;;;;;8.62;100.00;100389.88;5098108;27;45344;-48
2023/12/09 07:05:13;;;;;;;;;2.67;2.67;;;;;8.67;100.00;100401.72;5098451;27;45360;-48
2023/12/09 07:07:42;;;;;;;;;6.67;5.00;;;;;8.65;100.00;100384.31;5098556;27;45228;-50
2023/12/09 07:10:08;;;;;;;;;9.67;6.00;;;;;8.69;100.00;100381.22;5097871;27;46144;-50
2023/12/09 07:12:33;;;;;;;;;11.00;5.33;;;;;8.67;100.00;100369.06;5097762;27;45257;-53
2023/12/09 07:14:59;;;;;;;;;3.00;3.00;;;;;8.66;100.00;100365.59;5097810;27;47359;-47
2023/12/09 07:17:25;;;;;;;;;6.00;1.67;;;;;8.70;100.00;100352.88;5098129;27;45406;-47
2023/12/09 07:19:52;;;;;;;;;1.33;1.00;;;;;8.68;100.00;100346.88;5097619;27;47084;-47
2023/12/09 07:22:18;;;;;;;;;7.00;2.33;;;;;8.67;100.00;100346.03;5079183;27;45343;-48
2023/12/09 07:24:43;;;;;;;;;3.00;3.00;;;;;8.67;100.00;100343.41;5096984;27;45441;-45
2023/12/09 07:27:08;;;;;;;;;5.00;3.00;;;;;8.71;100.00;100331.53;5097879;27;45360;-47
2023/12/09 07:29:34;;;;;;;;;6.67;1.67;;;;;8.70;100.00;100332.50;5097155;27;52709;-45
2023/12/09 07:32:00;;;;;;;;;6.00;2.00;;;;;8.72;100.00;100330.56;5097616;27;45165;-51
2023/12/09 07:34:26;;;;;;;;;2.33;2.33;;;;;8.70;100.00;100323.72;5113791;27;45368;-52
2023/12/09 07:36:51;;;;;;;;;3.67;3.00;;;;;8.75;100.00;100340.84;5097818;27;45558;-47
2023/12/09 07:39:17;;;;;;;;;6.67;2.00;;;;;8.76;100.00;100341.69;5097475;27;46972;-46
2023/12/09 07:41:43;;;;;;;;;6.33;2.00;;;;;8.79;100.00;100345.88;5097395;27;45204;-44
2023/12/09 07:44:09;;;;;;;;;8.33;3.00;;;;;8.73;100.00;100320.78;5097397;27;45477;-46
2023/12/09 07:46:36;;;;;;;;;3.00;2.00;;;;;8.66;100.00;100286.03;5113526;27;45665;-47
2023/12/09 07:49:01;;;;;;;;;4.33;2.33;;;;;8.78;100.00;100302.63;5097073;27;46202;-46
2023/12/09 07:51:27;;;;;;;;;7.00;3.00;;;;;8.78;100.00;100292.00;5096766;27;45811;-46
2023/12/09 07:53:52;;;;;;;;;6.00;1.67;;;;;8.82;100.00;100288.09;5097413;27;45470;-51
2023/12/09 07:56:17;;;;;;;;;2.00;1.00;;;;;8.83;100.00;100280.97;5083416;27;45470;-44
2023/12/09 07:58:43;;;;;;;;;6.00;6.00;;;;;8.74;100.00;100261.47;5075424;28;45574;-51
2023/12/09 08:01:09;;;;;;;;;1.33;1.33;;;;;8.79;100.00;100258.38;5075690;28;45421;-48
2023/12/09 08:03:34;;;;;;;;;3.00;3.00;;;;;8.82;100.00;100258.91;5075637;28;45333;-50
2023/12/09 08:06:00;;;;;;;;;1.00;1.00;;;;;8.80;100.00;100252.91;5076893;28;45291;-54
2023/12/09 08:08:26;;;;;;;;;5.00;2.00;;;;;8.77;100.00;100231.16;5075973;28;47281;-56
2023/12/09 08:10:52;;;;;;;;;4.33;2.00;;;;;8.80;100.00;100210.47;5076443;28;45337;-56
2023/12/09 08:13:17;;;;;;;;;2.00;1.00;;;;;8.80;100.00;100215.78;5076367;28;45357;-54
2023/12/09 08:15:43;;;;;;;;;6.00;2.00;;;;;8.80;100.00;100199.03;5057532;27;45384;-48
2023/12/09 08:18:09;;;;;;;;;7.00;2.33;;;;;8.78;100.00;100177.13;5075993;28;45640;-47
2023/12/09 08:20:34;;;;;;;;;1.67;1.00;;;;;8.78;100.00;100154.09;5074247;27;45482;-46
2023/12/09 08:23:00;;;;;;;;;6.00;2.00;;;;;8.73;100.00;100143.13;5076192;27;45269;-48
2023/12/09 08:25:25;;;;;;;;;2.00;2.00;;;;;8.72;100.00;100123.72;5076057;28;45525;-46
2023/12/09 08:27:51;;;;;;;;;0.33;0.33;;;;;8.72;100.00;100129.03;5072655;28;46079;-52
2023/12/09 08:30:16;;;;;;;;;3.00;1.00;;;;;8.71;100.00;100116.72;5074994;27;45458;-43
2023/12/09 08:32:42;;;;;;;;;2.67;2.00;;;;;8.71;100.00;100110.59;5075998;28;45359;-51
2023/12/09 08:35:09;;;;;;;;;2.67;2.00;;;;;8.68;100.00;100066.66;5073272;27;45227;-47
2023/12/09 08:37:35;;;;;;;;;6.00;1.00;;;;;8.63;100.00;100053.00;5071546;28;45510;-51
2023/12/09 08:40:11;;;;;;;;;5.00;1.00;;;;;8.76;100.00;100076.50;5071388;28;45490;-50
2023/12/09 08:42:41;;;;;;;;;2.00;2.00;;;;;8.73;100.00;100085.59;5072272;28;45505;-47
2023/12/09 08:45:12;;;;;;;;;3.00;2.00;;;;;8.72;100.00;100068.03;5075361;28;45825;-53
2023/12/09 08:47:38;;;;;;;;;3.67;2.33;;;;;8.72;100.00;100068.03;5076093;28;45438;-48
2023/12/09 08:50:06;;;;;;;;;3.00;0.00;;;;;8.65;100.00;100027.19;5057606;28;45506;-52
2023/12/09 08:52:32;;;;;;;;;2.33;1.00;;;;;8.73;100.00;100037.88;5074455;28;45504;-47
2023/12/09 08:54:58;;;;;;;;;1.33;1.33;;;;;8.74;100.00;100036.88;5075613;28;45449;-47
2023/12/09 08:57:25;;;;;;;;;1.00;1.00;;;;;8.69;100.00;99996.75;5055586;28;48258;-46
2023/12/09 08:59:50;;;;;;;;;3.00;2.00;;;;;8.67;100.00;100009.31;5059464;28;45400;-47
2023/12/09 09:02:15;;;;;;;;;2.00;1.00;;;;;8.63;100.00;100004.47;5059346;28;45708;-46
2023/12/09 09:04:41;;;;;;;;;1.00;1.00;;;;;8.62;100.00;99973.63;5059535;28;45444;-47
2023/12/09 09:07:07;;;;;;;;;1.67;1.33;;;;;8.61;100.00;99956.91;5059201;28;45529;-47
2023/12/09 09:09:32;;;;;;;;;1.67;1.67;;;;;8.24;100.00;99886.31;5059366;28;45412;-48
2023/12/09 09:11:57;;;;;;;;;1.67;0.67;;;;;8.55;100.00;99938.94;5059533;28;45296;-47
2023/12/09 09:14:23;;;;;;;;;0.00;0.00;;;;;8.62;100.00;99974.47;5059753;28;45186;-48
2023/12/09 09:16:49;;;;;;;;;5.00;2.00;;;;;8.60;100.00;99928.72;5059184;28;46117;-50
2023/12/09 09:19:14;;;;;;;;;1.67;0.67;;;;;8.62;100.00;99907.34;5058321;28;45408;-49
2023/12/09 09:21:40;;;;;;;;;1.00;1.00;;;;;8.65;100.00;99915.84;5059571;28;45427;-49
2023/12/09 09:24:07;;;;;;;;;3.00;2.00;;;;;8.66;100.00;99944.00;5059494;28;45333;-47
2023/12/09 09:26:33;;;;;;;;;3.00;1.33;;;;;8.70;100.00;99945.38;5058752;28;46133;-48
2023/12/09 09:28:58;;;;;;;;;13.67;9.67;;;;;8.75;100.00;99944.91;5058631;28;45461;-48
2023/12/09 09:31:24;;;;;;;;;13.00;6.00;;;;;8.79;100.00;99946.25;5058927;28;45533;-48
2023/12/09 09:33:49;;;;;;;;;6.67;6.67;;;;;8.83;100.00;99960.03;5059165;28;45359;-51
2023/12/09 09:36:16;;;;;;;;;10.67;6.67;;;;;8.83;100.00;99937.00;5058566;28;46293;-48
2023/12/09 09:38:42;;;;;;;;;10.00;6.00;;;;;8.88;100.00;99952.44;5058508;28;45313;-45
2023/12/09 09:41:17;;;;;;;;;6.00;4.33;;;;;8.89;100.00;99939.06;5058888;28;45462;-45
2023/12/09 09:43:48;;;;;;;;;7.00;6.33;;;;;8.93;100.00;99934.25;5058827;28;45428;-47
2023/12/09 09:46:14;;;;;;;;;11.00;7.00;;;;;8.92;100.00;99928.13;5058582;28;45418;-47
2023/12/09 09:48:43;;;;;;;;;9.00;3.67;;;;;8.91;100.00;99907.06;5058673;28;45309;-46
2023/12/09 09:51:11;;;;;;;;;9.33;7.00;;;;;8.99;100.00;99915.91;5057726;28;45643;-45
2023/12/09 09:53:51;;;;;;;;;7.33;6.00;;;;;8.93;100.00;99891.81;5058807;28;45419;-49
2023/12/09 09:56:18;;;;;;;;;7.00;3.67;;;;;9.06;100.00;99909.94;5057200;28;45476;-46
2023/12/09 09:58:44;;;;;;;;;5.67;5.67;;;;;9.08;100.00;99903.50;5058332;28;45371;-47
2023/12/09 10:01:11;;;;;;;;;3.67;3.00;;;;;9.08;100.00;99879.63;5058442;28;45491;-48
2023/12/09 10:03:37;;;;;;;;;9.00;2.67;;;;;9.12;100.00;99851.78;5058539;28;45398;-49
2023/12/09 10:06:03;;;;;;;;;4.33;3.00;;;;;9.12;100.00;99861.56;5058055;28;46259;-46
2023/12/09 10:08:29;;;;;;;;;6.00;4.33;;;;;9.15;100.00;99853.31;5058392;28;45403;-46
2023/12/09 10:10:55;;;;;;;;;5.67;5.67;;;;;9.16;100.00;99863.75;5058292;28;45462;-49
2023/12/09 10:13:21;;;;;;;;;11.67;5.00;;;;;9.14;100.00;99855.13;5058433;28;45264;-46
2023/12/09 10:15:46;;;;;;;;;5.00;5.00;;;;;9.15;100.00;99853.31;5058169;28;45731;-48
2023/12/09 10:18:13;;;;;;;;;1.00;1.00;;;;;9.08;100.00;99876.97;5058196;28;45443;-49
2023/12/09 10:20:39;;;;;;;;;2.00;1.67;;;;;9.05;100.00;99848.09;5058205;28;45308;-46
2023/12/09 10:23:05;;;;;;;;;2.67;2.67;;;;;9.02;100.00;99827.22;5058332;28;45546;-45
2023/12/09 10:25:30;;;;;;;;;6.00;2.00;;;;;9.08;100.00;99815.13;5058068;28;47001;-44
2023/12/09 10:27:57;;;;;;;;;5.00;5.00;;;;;9.13;100.00;99818.13;5057626;28;46440;-46
2023/12/09 10:30:22;;;;;;;;;1.33;1.33;;;;;9.18;100.00;99808.69;5058183;28;45715;-43
2023/12/09 10:32:48;;;;;;;;;5.00;5.00;;;;;9.19;100.00;99807.72;5058194;28;45314;-46
2023/12/09 10:35:16;;;;;;;;;3.00;3.00;;;;;9.22;100.00;99790.63;5057851;28;46285;-45
2023/12/09 10:37:41;;;;;;;;;1.00;1.00;;;;;9.29;100.00;99814.72;5057900;28;45304;-46
2023/12/09 10:40:08;;;;;;;;;1.33;1.33;;;;;9.30;100.00;99784.50;5058302;28;45333;-50
2023/12/09 10:42:37;;;;;;;;;2.00;1.00;;;;;9.38;100.00;99781.88;5058069;28;45380;-52
2023/12/09 10:45:04;;;;;;;;;3.00;1.67;;;;;9.41;100.00;99787.72;5057522;28;47116;-47
2023/12/09 10:47:30;;;;;;;;;0.67;0.67;;;;;9.43;100.00;99782.22;5057752;28;45413;-48
2023/12/09 10:49:56;;;;;;;;;2.33;0.00;;;;;9.36;100.00;99734.28;5057704;28;45317;-44
2023/12/09 10:52:22;;;;;;;;;0.67;0.67;;;;;9.47;100.00;99778.25;5058151;28;45341;-47
2023/12/09 10:54:47;;;;;;;;;0.00;0.00;;;;;9.50;100.00;99754.88;5057529;28;45395;-48
2023/12/09 10:57:15;;;;;;;;;3.00;1.33;;;;;9.56;100.00;99750.72;5057354;28;45424;-50
2023/12/09 10:59:40;;;;;;;;;6.33;2.00;;;;;9.56;100.00;99726.81;5057843;28;45348;-46
2023/12/09 11:02:08;;;;;;;;;5.00;2.00;;;;;9.61;100.00;99748.41;5057495;28;45372;-45
2023/12/09 11:04:34;;;;;;;;;1.00;1.00;;;;;9.61;100.00;99729.84;5057577;28;46376;-45
2023/12/09 11:07:04;;;;;;;;;1.00;1.00;;;;;9.66;100.00;99714.22;5056951;28;45256;-49
2023/12/09 11:09:31;;;;;;;;;1.00;1.00;;;;;9.69;100.00;99718.34;5057377;28;45544;-49
2023/12/09 11:11:58;;;;;;;;;2.00;2.00;;;;;9.67;100.00;99712.41;5057752;28;45261;-49
2023/12/09 11:14:27;;;;;;;;;7.00;5.33;;;;;9.78;100.00;99692.66;5057278;28;46158;-47
2023/12/09 11:16:53;;;;;;;;;3.00;3.00;;;;;9.80;100.00;99704.75;5039290;28;45782;-47
2023/12/09 11:19:19;;;;;;;;;1.33;1.00;;;;;9.86;100.00;99672.22;5057424;28;45217;-46